Gunnison, CO

9:18 AM MDT on September 17, 2014 (GMT -0600)
Taylor St. | Change Station
CLOSE
Current Station
Personal Weather Station
Location: Gunnison, CO
Elevation: 7687 ft
Nearby Weather Stations

Elev 7687 ft 38.54 °N, 106.92 °W | Updated 7 minutes ago

Clear
Clear
50.2 °F
Feels Like 50.2 °F
N
0.0
Wind Variable Wind from SSW

Today
High -- | Low -- °F
--% Chance of Precip.
Yesterday
High -- | Low -- °F
Precip. -- in
6:51 AM 7:12 PM
Waning Crescent, 35% visible
Pressure 30.38 in
Visibility 10.0 miles
Clouds Clear
Dew Point 49 °F
Humidity 97%
Rainfall 0.00 in
Snow Depth 0 in , 0 in , 1 in
UV 2 out of 12
Pollen 5.60 out of 12
Air Quality Not available.
Flu Activity Not available.
METAR KGUC 171455Z AUTO 00000KT 10SM CLR 08/03 A3038 RMK AO1 52010

More Conditions Fewer Conditions

Pressure 30.38 in
Visibility 10.0 miles
Clouds Clear
Dew Point 49 °F
Humidity 97%
Rainfall 0.00 in
Snow Depth 0 in , 0 in , 1 in
UV 2 out of 12
Pollen 5.60 out of 12
Air Quality Not available.
Flu Activity Not available.
METAR KGUC 171455Z AUTO 00000KT 10SM CLR 08/03 A3038 RMK AO1 52010

More Conditions Fewer Conditions

10-Day Weather Forecast

Almanac

Astronomy

Sep. 17, 2014 Rise Set
Actual Time 6:51 AM MDT 7:12 PM MDT
Civil Twilight 6:24 AM MDT 7:39 PM MDT
Nautical Twilight 5:53 AM MDT 8:10 PM MDT
Astronomical Twilight 5:21 AM MDT 8:42 PM MDT
Moon 12:56 AM MDT 3:21 PM MDT
Length of Visible Light 13h 14m
Length of Day
12h 21m
Tomorrow will be 2m 27s shorter.
Waning Crescent, 35% of the Moon is Illuminated
Today
Waning Crescent
Sep 24
New
Oct 1
First Quarter
Oct 8
Full
Oct 15
Last Quarter

Today's Extremes

State Highs State Lows

Community

WunderPhotos

Upload Photos

1,754,067 photos uploaded!

WunderBlogs® & News

Nearby

Snow Depth

Station Depth Elevation
Buckskin Joe 0 in 11150 ft
Ute Creek 0 in 10650 ft
Grayback 1 in 11620 ft
Scotch Creek 0 in 9100 ft
Beaver Divide 0 in 8280 ft

Earthquake Activity

City Distance Mag. Time & Date
No recent earthquake activity has been reported nearby.
Minimum magnitude displayed is 2.5.

Coastal Water Temperatures

Place Temperature
No Stations Reporting

Nearby Weather Stations